Time;durP1;ratioP1;P1;durP2;ratioP2;P2;SDS_P1;SDS_P2;PMS_P1;PMS_P2;Temp;Humidity;BMP_temperature;BMP_pressure;BME280_temperature;BME280_humidity;BME280_pressure;Samples;Min_cycle;Max_cycle;Signal;HPM_P1;HPM_P2
2022/10/31 00:00:23;;;;;;;11.60;2.85;;;;;;;;;;6248874;22;20018;-94
2022/10/31 00:02:49;;;;;;;8.43;3.08;;;;;;;;;;6247813;22;20335;-93
2022/10/31 00:05:15;;;;;;;8.85;2.53;;;;;;;;;;6248499;22;20003;-92
2022/10/31 00:07:41;;;;;;;10.15;2.88;;;;;;;;;;6249550;22;20063;-93
2022/10/31 00:10:08;;;;;;;8.60;2.80;;;;;;;;;;6274539;22;20000;-93
2022/10/31 00:12:34;;;;;;;8.40;2.40;;;;;;;;;;6275312;22;20428;-93
2022/10/31 00:15:00;;;;;;;12.55;2.97;;;;;;;;;;6247737;22;20060;-92
2022/10/31 00:17:31;;;;;;;6.22;2.42;;;;;;;;;;6250480;22;20010;-93
2022/10/31 00:19:57;;;;;;;10.85;2.88;;;;;;;;;;6281148;22;20003;-92
2022/10/31 00:22:26;;;;;;;11.00;2.67;;;;;;;;;;6249394;22;20042;-94
2022/10/31 00:24:52;;;;;;;5.57;2.42;;;;;;;;;;6249304;22;20049;-94
2022/10/31 00:27:23;;;;;;;9.85;2.72;;;;;;;;;;6248891;22;20010;-94
2022/10/31 00:29:49;;;;;;;11.65;2.50;;;;;;;;;;6249402;22;20467;-94
2022/10/31 00:32:15;;;;;;;8.38;2.80;;;;;;;;;;6275666;22;20007;-90
2022/10/31 00:34:43;;;;;;;5.43;2.80;;;;;;;;;;6277661;22;19996;-92
2022/10/31 00:37:11;;;;;;;7.10;2.47;;;;;;;;;;6250689;22;20003;-93
2022/10/31 00:39:37;;;;;;;4.45;2.50;;;;;;;;;;6249712;22;20390;-92
2022/10/31 00:42:03;;;;;;;6.97;2.83;;;;;;;;;;6250156;22;20011;-92
2022/10/31 00:44:29;;;;;;;8.45;2.55;;;;;;;;;;6276720;22;20008;-93
2022/10/31 00:46:55;;;;;;;9.52;3.13;;;;;;;;;;6274646;22;20015;-93
2022/10/31 00:49:21;;;;;;;8.88;3.10;;;;;;;;;;6248920;22;20008;-93
2022/10/31 00:51:47;;;;;;;8.88;2.83;;;;;;;;;;6248267;22;20042;-89
2022/10/31 00:54:14;;;;;;;10.02;3.47;;;;;;;;;;6249299;22;20000;-93
2022/10/31 00:56:42;;;;;;;8.68;3.00;;;;;;;;;;6274769;22;20046;-92
2022/10/31 00:59:08;;;;;;;11.18;3.20;;;;;;;;;;6247789;22;20502;-91
2022/10/31 01:01:34;;;;;;;11.60;3.67;;;;;;;;;;6250165;22;20474;-93
2022/10/31 01:04:00;;;;;;;11.35;3.60;;;;;;;;;;6248510;22;20026;-94
2022/10/31 01:06:27;;;;;;;13.35;4.03;;;;;;;;;;6275875;22;20193;-92
2022/10/31 01:08:53;;;;;;;8.27;3.95;;;;;;;;;;6275208;22;20097;-94
2022/10/31 01:11:20;;;;;;;7.22;3.38;;;;;;;;;;6274946;22;20014;-93
2022/10/31 01:13:46;;;;;;;11.43;4.30;;;;;;;;;;6248638;22;20014;-94
2022/10/31 01:16:16;;;;;;;13.23;4.25;;;;;;;;;;6275187;22;20328;-93
2022/10/31 01:18:42;;;;;;;14.63;4.20;;;;;;;;;;6275664;22;20082;-94
2022/10/31 01:21:10;;;;;;;8.88;4.18;;;;;;;;;;6274883;22;19999;-90
2022/10/31 01:23:36;;;;;;;26.30;4.93;;;;;;;;;;6275028;22;20045;-92
2022/10/31 01:26:02;;;;;;;19.17;4.47;;;;;;;;;;6247194;22;20010;-93
2022/10/31 01:28:28;;;;;;;16.15;4.07;;;;;;;;;;6247488;22;20012;-93
2022/10/31 01:30:56;;;;;;;9.88;3.70;;;;;;;;;;6248190;22;20003;-94
2022/10/31 01:33:22;;;;;;;;;;;;;;;;;;6248855;22;20043;-94
2022/10/31 01:35:48;;;;;;;22.73;4.05;;;;;;;;;;6278599;22;19899;-90
2022/10/31 01:38:14;;;;;;;12.73;3.53;;;;;;;;;;6270200;22;20011;-89
2022/10/31 01:40:43;;;;;;;41.05;4.05;;;;;;;;;;6273269;22;19992;-91
2022/10/31 01:43:13;;;;;;;20.85;3.95;;;;;;;;;;6275663;22;20006;-90
2022/10/31 01:45:39;;;;;;;43.42;4.30;;;;;;;;;;6292705;22;20003;-89
2022/10/31 01:48:05;;;;;;;84.00;4.53;;;;;;;;;;6257841;22;20036;-91
2022/10/31 01:50:37;;;;;;;8.68;3.53;;;;;;;;;;6250604;22;20004;-92
2022/10/31 01:53:05;;;;;;;19.75;3.60;;;;;;;;;;6250127;22;20011;-92
2022/10/31 01:55:31;;;;;;;;;;;;;;;;;;6249488;22;20008;-93
2022/10/31 01:58:05;;;;;;;90.20;4.88;;;;;;;;;;6249989;22;20269;-91
2022/10/31 02:00:33;;;;;;;8.18;3.20;;;;;;;;;;6249394;22;20000;-92
2022/10/31 02:02:59;;;;;;;;;;;;;;;;;;6249186;22;20135;-95
2022/10/31 02:05:36;;;;;;;30.63;3.20;;;;;;;;;;6275948;22;20243;-90
2022/10/31 02:08:14;;;;;;;67.25;3.83;;;;;;;;;;6275723;22;19996;-92
2022/10/31 02:10:40;;;;;;;21.92;3.33;;;;;;;;;;6275689;22;20011;-90
2022/10/31 02:13:07;;;;;;;11.95;3.03;;;;;;;;;;6276425;22;20007;-92
2022/10/31 02:15:35;;;;;;;28.33;3.25;;;;;;;;;;6275572;22;20075;-94
2022/10/31 02:18:01;;;;;;;106.60;4.03;;;;;;;;;;6248133;22;20035;-93
2022/10/31 02:20:44;;;;;;;18.35;3.08;;;;;;;;;;6249315;22;20003;-93
2022/10/31 02:23:31;;;;;;;26.40;3.40;;;;;;;;;;6249471;22;20006;-89
2022/10/31 02:26:08;;;;;;;46.03;3.40;;;;;;;;;;6247444;22;20007;-89
2022/10/31 02:28:40;;;;;;;45.75;3.22;;;;;;;;;;6275264;22;20061;-93
2022/10/31 02:31:09;;;;;;;32.70;2.85;;;;;;;;;;6275710;22;20057;-93
2022/10/31 02:33:48;;;;;;;55.67;3.60;;;;;;;;;;6249701;22;20019;-90
2022/10/31 02:36:28;;;;;;;16.83;2.70;;;;;;;;;;6248038;22;20004;-93
2022/10/31 02:39:02;;;;;;;8.70;2.53;;;;;;;;;;6247566;22;20027;-93
2022/10/31 02:41:47;;;;;;;35.38;3.03;;;;;;;;;;6248838;22;20004;-92
2022/10/31 02:44:28;;;;;;;38.35;2.78;;;;;;;;;;6248307;22;20018;-93
2022/10/31 02:47:02;;;;;;;85.88;3.63;;;;;;;;;;6247855;22;20012;-93
2022/10/31 02:49:33;;;;;;;36.92;2.30;;;;;;;;;;6248101;22;19999;-92
2022/10/31 02:51:59;;;;;;;47.10;2.65;;;;;;;;;;6247550;22;20011;-92
2022/10/31 02:54:27;;;;;;;10.93;2.53;;;;;;;;;;6276869;22;20054;-90
2022/10/31 02:56:59;;;;;;;20.63;2.50;;;;;;;;;;6276748;22;20436;-94
2022/10/31 02:59:30;;;;;;;19.13;2.25;;;;;;;;;;6255265;22;20336;-92
2022/10/31 03:01:56;;;;;;;81.43;3.25;;;;;;;;;;6256055;22;20004;-90
2022/10/31 03:04:25;;;;;;;106.55;3.95;;;;;;;;;;6247006;22;20022;-92
2022/10/31 03:06:57;;;;;;;67.75;3.20;;;;;;;;;;6247605;22;20026;-94
2022/10/31 03:09:39;;;;;;;11.82;2.60;;;;;;;;;;6248387;22;20481;-94
2022/10/31 03:12:11;;;;;;;42.03;2.80;;;;;;;;;;6282376;22;20448;-91
2022/10/31 03:14:44;;;;;;;5.50;2.28;;;;;;;;;;6279015;22;20000;-94
2022/10/31 03:17:16;;;;;;;42.75;2.80;;;;;;;;;;6250236;22;20046;-93
2022/10/31 03:19:46;;;;;;;30.42;2.63;;;;;;;;;;6248484;22;20083;-90
2022/10/31 03:22:21;;;;;;;39.78;2.88;;;;;;;;;;6275711;22;20000;-91
2022/10/31 03:24:49;;;;;;;20.63;2.60;;;;;;;;;;6274047;22;20054;-93
2022/10/31 03:27:17;;;;;;;7.97;2.10;;;;;;;;;;6248590;22;20266;-93
2022/10/31 03:29:45;;;;;;;94.75;3.42;;;;;;;;;;6275220;22;19996;-89
2022/10/31 03:32:20;;;;;;;48.92;2.72;;;;;;;;;;6275700;22;20317;-94
2022/10/31 03:34:46;;;;;;;19.52;2.50;;;;;;;;;;6247820;22;20091;-93
2022/10/31 03:37:15;;;;;;;14.20;2.35;;;;;;;;;;6248909;22;20035;-91
2022/10/31 03:39:43;;;;;;;;;;;;;;;;;;6275745;22;20424;-90
2022/10/31 03:42:11;;;;;;;36.65;2.40;;;;;;;;;;6250723;22;19970;-93
2022/10/31 03:44:39;;;;;;;9.48;2.45;;;;;;;;;;6247294;22;20007;-89
2022/10/31 03:47:05;;;;;;;29.25;2.25;;;;;;;;;;6247689;22;20008;-90
2022/10/31 03:49:33;;;;;;;4.10;1.92;;;;;;;;;;6249252;22;20012;-94
2022/10/31 03:52:14;;;;;;;50.50;2.40;;;;;;;;;;6248232;22;20392;-92
2022/10/31 03:54:40;;;;;;;36.92;2.17;;;;;;;;;;6248137;22;19999;-89
2022/10/31 03:57:10;;;;;;;43.75;2.53;;;;;;;;;;6247466;22;20087;-91
2022/10/31 03:59:40;;;;;;;56.42;2.60;;;;;;;;;;6246517;22;20003;-91
2022/10/31 04:02:08;;;;;;;78.60;2.83;;;;;;;;;;6273784;22;20332;-89
2022/10/31 04:04:35;;;;;;;52.15;2.45;;;;;;;;;;6274984;22;20203;-94
2022/10/31 04:07:12;;;;;;;;;;;;;;;;;;;;;
2022/10/31 04:09:40;;;;;;;19.35;1.85;;;;;;;;;;6276627;22;20086;-93
2022/10/31 04:12:08;;;;;;;10.32;1.50;;;;;;;;;;6251797;22;20016;-93
2022/10/31 04:14:36;;;;;;;7.20;1.65;;;;;;;;;;6254441;22;20049;-94
2022/10/31 04:17:04;;;;;;;14.98;1.73;;;;;;;;;;6252751;22;20038;-89
2022/10/31 04:19:31;;;;;;;47.70;2.17;;;;;;;;;;6266461;22;19988;-95
2022/10/31 04:21:57;;;;;;;90.65;2.80;;;;;;;;;;6271948;22;20015;-89
2022/10/31 04:24:23;;;;;;;81.78;2.70;;;;;;;;;;6267440;22;20008;-89
2022/10/31 04:26:52;;;;;;;11.07;1.58;;;;;;;;;;6286823;22;19987;-92
2022/10/31 04:29:18;;;;;;;61.60;2.72;;;;;;;;;;6253173;22;19999;-95
2022/10/31 04:31:44;;;;;;;14.45;1.83;;;;;;;;;;6248862;22;20004;-93
2022/10/31 04:34:10;;;;;;;109.18;3.22;;;;;;;;;;6273702;22;20079;-89
2022/10/31 04:36:36;;;;;;;4.13;1.40;;;;;;;;;;6247418;22;20694;-93
2022/10/31 04:39:02;;;;;;;5.78;1.58;;;;;;;;;;6274165;22;20003;-92
2022/10/31 04:41:28;;;;;;;60.33;2.40;;;;;;;;;;6246682;22;20042;-91
2022/10/31 04:43:55;;;;;;;76.85;2.67;;;;;;;;;;6273451;22;20129;-94
2022/10/31 04:46:21;;;;;;;11.80;1.88;;;;;;;;;;6247696;22;20065;-93
2022/10/31 04:48:47;;;;;;;13.73;1.60;;;;;;;;;;6247885;22;20004;-88
2022/10/31 04:51:13;;;;;;;21.98;1.95;;;;;;;;;;6275154;22;20019;-94
2022/10/31 04:53:40;;;;;;;6.13;1.75;;;;;;;;;;6247675;22;20026;-92
2022/10/31 04:56:06;;;;;;;56.53;2.25;;;;;;;;;;6246850;22;20038;-87
2022/10/31 04:58:34;;;;;;;2.17;1.48;;;;;;;;;;6273097;22;20003;-89
2022/10/31 05:01:00;;;;;;;2.08;1.42;;;;;;;;;;6246573;22;20369;-92
2022/10/31 05:03:34;;;;;;;46.00;2.10;;;;;;;;;;6246706;22;20429;-92
2022/10/31 05:06:00;;;;;;;34.70;1.98;;;;;;;;;;6273066;22;20000;-92
2022/10/31 05:08:26;;;;;;;33.45;1.83;;;;;;;;;;6246309;22;20008;-92
2022/10/31 05:10:54;;;;;;;49.38;2.08;;;;;;;;;;6279135;22;20448;-94
2022/10/31 05:13:20;;;;;;;43.53;2.05;;;;;;;;;;6247938;22;20012;-92
2022/10/31 05:15:46;;;;;;;123.70;3.20;;;;;;;;;;6250072;22;20057;-92
2022/10/31 05:18:12;;;;;;;68.47;2.60;;;;;;;;;;6274558;22;20026;-92
2022/10/31 05:20:56;;;;;;;75.15;2.45;;;;;;;;;;6248694;22;20529;-93
2022/10/31 05:23:24;;;;;;;48.83;2.17;;;;;;;;;;6275608;22;20023;-94
2022/10/31 05:25:50;;;;;;;41.85;2.40;;;;;;;;;;6248103;22;20435;-89
2022/10/31 05:28:16;;;;;;;12.35;1.73;;;;;;;;;;6275034;22;20004;-93
2022/10/31 05:30:42;;;;;;;65.10;2.85;;;;;;;;;;6248545;22;20453;-93
2022/10/31 05:33:08;;;;;;;22.75;1.92;;;;;;;;;;6248358;22;20021;-93
2022/10/31 05:35:35;;;;;;;5.88;1.80;;;;;;;;;;6248664;22;20004;-93
2022/10/31 05:38:03;;;;;;;64.10;2.53;;;;;;;;;;6275434;22;20003;-94
2022/10/31 05:40:29;;;;;;;29.67;2.00;;;;;;;;;;6248595;22;20063;-93
2022/10/31 05:42:58;;;;;;;7.07;1.85;;;;;;;;;;6247963;22;20029;-96
2022/10/31 05:45:27;;;;;;;19.27;2.03;;;;;;;;;;6248352;22;20344;-94
2022/10/31 05:47:57;;;;;;;21.98;2.50;;;;;;;;;;6275386;22;20042;-92
2022/10/31 05:50:26;;;;;;;111.18;3.10;;;;;;;;;;6248620;22;20086;-92
2022/10/31 05:52:57;;;;;;;14.02;2.10;;;;;;;;;;6275803;22;20039;-90
2022/10/31 05:55:26;;;;;;;13.68;2.15;;;;;;;;;;6249879;22;20000;-96
2022/10/31 05:57:52;;;;;;;3.22;1.80;;;;;;;;;;6249692;22;20014;-92
2022/10/31 06:00:19;;;;;;;28.45;2.22;;;;;;;;;;6250345;22;20004;-92
2022/10/31 06:02:45;;;;;;;14.35;2.13;;;;;;;;;;6249979;22;20004;-95
2022/10/31 06:05:11;;;;;;;2.13;1.88;;;;;;;;;;6277564;22;20242;-95
2022/10/31 06:07:39;;;;;;;10.82;2.03;;;;;;;;;;6249008;22;20004;-89
2022/10/31 06:10:06;;;;;;;3.97;2.20;;;;;;;;;;6248849;22;20011;-92
2022/10/31 06:12:37;;;;;;;5.72;2.10;;;;;;;;;;6275744;22;20035;-95
2022/10/31 06:15:03;;;;;;;30.38;2.75;;;;;;;;;;6277298;22;20008;-93
2022/10/31 06:17:29;;;;;;;5.85;2.30;;;;;;;;;;6250842;22;20425;-94
2022/10/31 06:19:55;;;;;;;48.75;2.95;;;;;;;;;;6251775;22;20015;-92
2022/10/31 06:22:22;;;;;;;21.40;2.90;;;;;;;;;;6280162;22;20000;-93
2022/10/31 06:24:48;;;;;;;9.13;2.70;;;;;;;;;;6256255;22;20066;-94
2022/10/31 06:27:14;;;;;;;6.97;2.50;;;;;;;;;;6252125;22;20004;-94
2022/10/31 06:29:47;;;;;;;4.43;2.50;;;;;;;;;;6277914;22;20003;-93
2022/10/31 06:32:16;;;;;;;73.93;3.83;;;;;;;;;;6248850;22;20057;-95
2022/10/31 06:34:47;;;;;;;28.80;3.08;;;;;;;;;;6248744;22;20149;-93
2022/10/31 06:37:16;;;;;;;41.55;3.10;;;;;;;;;;6248978;22;20003;-93
2022/10/31 06:39:42;;;;;;;11.05;2.70;;;;;;;;;;6249257;22;20008;-94
2022/10/31 06:42:08;;;;;;;19.60;2.63;;;;;;;;;;6275943;22;20027;-93
2022/10/31 06:44:34;;;;;;;10.55;2.90;;;;;;;;;;6249467;22;20007;-94
2022/10/31 06:47:00;;;;;;;13.20;2.50;;;;;;;;;;6275269;22;20000;-89
2022/10/31 06:49:26;;;;;;;5.63;2.63;;;;;;;;;;6249263;22;20094;-89
2022/10/31 06:51:54;;;;;;;22.50;2.78;;;;;;;;;;6249484;22;20448;-89
2022/10/31 06:54:21;;;;;;;5.60;2.60;;;;;;;;;;6250659;22;20114;-94
2022/10/31 06:56:47;;;;;;;17.38;2.60;;;;;;;;;;6279796;22;20057;-94
2022/10/31 06:59:13;;;;;;;23.35;2.53;;;;;;;;;;6273553;22;20051;-89
2022/10/31 07:01:39;;;;;;;7.00;2.40;;;;;;;;;;6272442;22;20008;-89
2022/10/31 07:04:05;;;;;;;3.75;2.60;;;;;;;;;;6299887;22;20015;-92
2022/10/31 07:06:31;;;;;;;5.10;2.45;;;;;;;;;;6260324;22;20014;-94
2022/10/31 07:08:57;;;;;;;2.80;2.60;;;;;;;;;;6253884;22;20086;-89
2022/10/31 07:11:24;;;;;;;3.28;2.63;;;;;;;;;;6277147;22;20002;-90
2022/10/31 07:13:50;;;;;;;8.32;3.10;;;;;;;;;;6253003;22;20391;-95
2022/10/31 07:16:16;;;;;;;5.65;2.80;;;;;;;;;;6250210;22;20008;-91
2022/10/31 07:18:44;;;;;;;5.72;2.88;;;;;;;;;;6250236;22;20347;-94
2022/10/31 07:21:13;;;;;;;;;;;;;;;;;;6249233;22;20416;-90
2022/10/31 07:23:39;;;;;;;3.38;2.97;;;;;;;;;;6249820;22;19899;-95
2022/10/31 07:26:05;;;;;;;5.55;2.90;;;;;;;;;;6250769;22;20008;-95
2022/10/31 07:28:31;;;;;;;6.03;3.05;;;;;;;;;;6252519;22;20003;-95
2022/10/31 07:31:00;;;;;;;5.50;2.90;;;;;;;;;;6255808;22;20007;-91
2022/10/31 07:33:26;;;;;;;4.70;2.80;;;;;;;;;;6257287;22;20019;-89
2022/10/31 07:35:53;;;;;;;3.13;2.58;;;;;;;;;;6279889;22;19995;-95
2022/10/31 07:38:19;;;;;;;5.75;2.63;;;;;;;;;;6247092;22;20007;-93
2022/10/31 07:40:49;;;;;;;3.53;2.67;;;;;;;;;;6246727;22;20082;-95
2022/10/31 07:43:15;;;;;;;5.53;2.70;;;;;;;;;;6247568;22;20169;-94
2022/10/31 07:45:41;;;;;;;4.93;2.42;;;;;;;;;;6248506;22;20000;-91
2022/10/31 07:48:07;;;;;;;4.07;2.22;;;;;;;;;;6248355;22;20039;-89
2022/10/31 07:50:34;;;;;;;3.65;2.33;;;;;;;;;;6273743;22;20000;-91
2022/10/31 07:53:03;;;;;;;5.38;2.63;;;;;;;;;;6247840;22;20018;-92
2022/10/31 07:55:30;;;;;;;5.07;2.53;;;;;;;;;;6248151;22;20133;-90
2022/10/31 07:58:00;;;;;;;4.10;2.30;;;;;;;;;;6247634;22;20015;-89
2022/10/31 08:00:26;;;;;;;8.57;2.75;;;;;;;;;;6273486;22;20004;-89
2022/10/31 08:02:59;;;;;;;5.28;2.90;;;;;;;;;;6246310;22;20003;-88
2022/10/31 08:05:25;;;;;;;5.03;2.85;;;;;;;;;;6245955;22;20448;-92
2022/10/31 08:07:51;;;;;;;2.92;2.55;;;;;;;;;;6245386;22;20062;-91
2022/10/31 08:10:17;;;;;;;4.57;2.83;;;;;;;;;;6271685;22;20315;-91
2022/10/31 08:12:43;;;;;;;5.57;2.78;;;;;;;;;;6246876;22;20050;-92
2022/10/31 08:15:10;;;;;;;5.82;2.85;;;;;;;;;;6271598;22;19996;-92
2022/10/31 08:17:36;;;;;;;7.47;3.03;;;;;;;;;;6271732;22;20014;-88
2022/10/31 08:20:03;;;;;;;5.25;3.05;;;;;;;;;;6271359;22;19996;-91
2022/10/31 08:22:29;;;;;;;3.28;2.88;;;;;;;;;;6243724;22;20007;-90
2022/10/31 08:24:58;;;;;;;8.50;3.10;;;;;;;;;;6274328;22;19995;-93
2022/10/31 08:27:24;;;;;;;6.63;2.90;;;;;;;;;;6249374;22;20004;-92
2022/10/31 08:29:50;;;;;;;3.80;3.05;;;;;;;;;;6273679;22;20054;-93
2022/10/31 08:32:16;;;;;;;5.32;2.75;;;;;;;;;;6246098;22;20043;-89
2022/10/31 08:34:45;;;;;;;6.32;2.72;;;;;;;;;;6245371;22;19999;-94
2022/10/31 08:37:11;;;;;;;10.52;3.40;;;;;;;;;;6243123;22;20007;-89
2022/10/31 08:39:37;;;;;;;5.13;3.00;;;;;;;;;;6239312;22;20004;-90
2022/10/31 08:42:05;;;;;;;3.03;2.72;;;;;;;;;;6243597;22;20008;-94
2022/10/31 08:44:31;;;;;;;6.35;3.20;;;;;;;;;;6270711;22;20008;-90
2022/10/31 08:46:58;;;;;;;6.50;3.15;;;;;;;;;;6245082;22;20378;-91
2022/10/31 08:49:24;;;;;;;5.82;2.88;;;;;;;;;;6273511;22;20010;-92
2022/10/31 08:51:50;;;;;;;5.18;2.75;;;;;;;;;;6245612;22;20011;-90
2022/10/31 08:54:17;;;;;;;4.53;2.47;;;;;;;;;;6244630;22;20015;-87
2022/10/31 08:56:43;;;;;;;6.47;2.58;;;;;;;;;;6246102;22;20026;-89
2022/10/31 08:59:09;;;;;;;5.63;2.75;;;;;;;;;;6246865;22;20094;-91
2022/10/31 09:01:35;;;;;;;4.75;2.40;;;;;;;;;;6245233;22;20000;-91
2022/10/31 09:04:01;;;;;;;7.60;2.95;;;;;;;;;;6272852;22;20057;-88
2022/10/31 09:06:27;;;;;;;3.90;2.70;;;;;;;;;;6247313;22;20335;-90
2022/10/31 09:08:53;;;;;;;5.97;2.75;;;;;;;;;;6245486;22;20003;-93
2022/10/31 09:11:19;;;;;;;6.88;3.20;;;;;;;;;;6246679;22;20590;-93
2022/10/31 09:13:47;;;;;;;4.00;2.80;;;;;;;;;;6246421;22;20098;-90
2022/10/31 09:16:15;;;;;;;6.45;3.03;;;;;;;;;;6271662;22;19999;-90
2022/10/31 09:18:41;;;;;;;5.18;2.85;;;;;;;;;;6245706;22;20035;-91
2022/10/31 09:21:08;;;;;;;7.13;2.90;;;;;;;;;;6246351;22;20003;-94
2022/10/31 09:23:34;;;;;;;7.47;3.17;;;;;;;;;;6245004;22;20416;-90
2022/10/31 09:26:01;;;;;;;5.93;3.35;;;;;;;;;;6246519;22;20008;-93
2022/10/31 09:28:27;;;;;;;7.75;3.20;;;;;;;;;;6248978;22;20026;-93
2022/10/31 09:30:54;;;;;;;12.85;3.88;;;;;;;;;;6247835;22;20004;-93
2022/10/31 09:33:20;;;;;;;8.13;3.45;;;;;;;;;;6247640;22;20016;-90
2022/10/31 09:35:46;;;;;;;13.70;4.20;;;;;;;;;;6248170;22;20004;-89
2022/10/31 09:38:18;;;;;;;7.55;4.40;;;;;;;;;;6264195;22;20063;-90
2022/10/31 09:40:44;;;;;;;8.32;4.03;;;;;;;;;;6265896;22;20004;-88
2022/10/31 09:43:14;;;;;;;10.55;5.03;;;;;;;;;;6267864;22;20008;-89
2022/10/31 09:45:52;;;;;;;11.00;5.35;;;;;;;;;;6247473;22;20079;-92
2022/10/31 09:48:32;;;;;;;8.60;4.32;;;;;;;;;;6247251;22;20015;-89
2022/10/31 09:51:00;;;;;;;10.05;5.55;;;;;;;;;;6246703;22;19999;-93
2022/10/31 09:53:26;;;;;;;;;;;;;;;;;;6248265;22;20042;-91
2022/10/31 09:55:55;;;;;;;10.68;5.38;;;;;;;;;;6274068;22;19899;-89
2022/10/31 09:58:25;;;;;;;10.18;5.32;;;;;;;;;;6273636;22;20550;-89
2022/10/31 10:00:52;;;;;;;11.65;5.70;;;;;;;;;;6246856;22;20077;-93
2022/10/31 10:03:24;;;;;;;8.85;5.55;;;;;;;;;;6247338;22;20078;-92
2022/10/31 10:06:12;;;;;;;11.32;6.00;;;;;;;;;;6247274;22;20011;-88
2022/10/31 10:08:38;;;;;;;11.20;6.05;;;;;;;;;;6246001;22;20011;-92
2022/10/31 10:11:04;;;;;;;15.93;6.80;;;;;;;;;;6272659;22;20336;-92
2022/10/31 10:13:53;;;;;;;14.48;6.22;;;;;;;;;;6244416;22;20027;-89
2022/10/31 10:16:19;;;;;;;13.68;6.85;;;;;;;;;;6246026;22;20000;-89
2022/10/31 10:18:53;;;;;;;12.13;6.20;;;;;;;;;;6273325;22;20023;-90
2022/10/31 10:21:22;;;;;;;10.30;6.93;;;;;;;;;;6272294;22;19996;-88
2022/10/31 10:23:48;;;;;;;10.65;6.82;;;;;;;;;;6245755;22;20432;-90
2022/10/31 10:26:17;;;;;;;15.13;6.53;;;;;;;;;;6245760;22;20008;-91
2022/10/31 10:28:45;;;;;;;11.75;6.13;;;;;;;;;;6246492;22;20018;-90
2022/10/31 10:31:16;;;;;;;13.77;7.10;;;;;;;;;;6246925;22;20022;-93
2022/10/31 10:33:52;;;;;;;9.77;6.70;;;;;;;;;;6246698;22;20045;-92
2022/10/31 10:36:42;;;;;;;12.60;6.65;;;;;;;;;;6246257;22;20004;-92
2022/10/31 10:39:18;;;;;;;13.25;6.63;;;;;;;;;;6245277;22;20087;-90
2022/10/31 10:41:46;;;;;;;14.95;6.80;;;;;;;;;;6273493;22;20007;-93
2022/10/31 10:44:12;;;;;;;11.38;6.30;;;;;;;;;;6249278;22;20003;-87
2022/10/31 10:49:52;;;;;;;11.23;6.90;;;;;;;;;;6274191;22;20122;-89
2022/10/31 10:52:58;;;;;;;11.25;7.30;;;;;;;;;;6273684;22;20371;-93
2022/10/31 10:55:30;;;;;;;13.77;7.03;;;;;;;;;;6186552;23;20385;-92
2022/10/31 10:57:59;;;;;;;13.48;7.10;;;;;;;;;;6267768;22;20011;-92
2022/10/31 11:00:41;;;;;;;16.55;7.80;;;;;;;;;;6276028;22;20000;-93
2022/10/31 11:03:08;;;;;;;13.15;6.97;;;;;;;;;;6247251;22;20039;-90
2022/10/31 11:05:47;;;;;;;12.65;7.53;;;;;;;;;;6241489;22;20035;-89
2022/10/31 11:08:24;;;;;;;16.10;8.32;;;;;;;;;;6245796;22;20007;-92
2022/10/31 11:11:05;;;;;;;12.20;7.55;;;;;;;;;;6273093;22;20246;-91
2022/10/31 11:13:32;;;;;;;13.73;7.97;;;;;;;;;;6245837;22;20015;-91
2022/10/31 11:15:58;;;;;;;14.00;8.32;;;;;;;;;;6245994;22;20028;-90
2022/10/31 11:18:26;;;;;;;12.43;8.38;;;;;;;;;;6245604;22;19999;-91
2022/10/31 11:20:53;;;;;;;16.25;8.32;;;;;;;;;;6247496;22;20034;-90
2022/10/31 11:23:28;;;;;;;13.27;8.20;;;;;;;;;;6248132;22;20325;-88
2022/10/31 11:26:04;;;;;;;13.00;8.05;;;;;;;;;;6247807;22;20439;-90
2022/10/31 11:28:34;;;;;;;17.00;8.60;;;;;;;;;;6283674;22;20004;-93
2022/10/31 11:31:05;;;;;;;15.43;8.88;;;;;;;;;;6255327;22;20016;-89
2022/10/31 11:33:31;;;;;;;19.33;9.10;;;;;;;;;;6256299;22;20015;-87
2022/10/31 11:35:58;;;;;;;21.05;10.25;;;;;;;;;;6247428;22;20424;-89
2022/10/31 11:38:26;;;;;;;17.88;8.70;;;;;;;;;;6245843;22;20027;-89
2022/10/31 11:41:01;;;;;;;18.08;8.80;;;;;;;;;;6246148;22;20174;-91
2022/10/31 11:43:27;;;;;;;14.35;9.38;;;;;;;;;;6246321;22;20067;-90
2022/10/31 11:45:53;;;;;;;21.75;10.15;;;;;;;;;;6272965;22;20839;-93
2022/10/31 11:48:23;;;;;;;16.33;9.48;;;;;;;;;;6245471;22;20096;-90
2022/10/31 11:50:55;;;;;;;16.13;9.05;;;;;;;;;;6245277;22;20089;-90
2022/10/31 11:53:27;;;;;;;19.73;9.98;;;;;;;;;;6244364;22;20012;-93
2022/10/31 11:56:04;;;;;;;25.20;10.55;;;;;;;;;;6272473;22;20377;-92
2022/10/31 11:58:30;;;;;;;16.08;9.63;;;;;;;;;;6245351;22;20448;-92
2022/10/31 12:00:57;;;;;;;21.23;10.50;;;;;;;;;;6245323;22;20519;-91
2022/10/31 12:03:31;;;;;;;19.27;10.50;;;;;;;;;;6245978;22;20275;-93
2022/10/31 12:06:05;;;;;;;18.80;10.68;;;;;;;;;;6245257;22;20407;-96
2022/10/31 12:08:33;;;;;;;19.33;10.57;;;;;;;;;;6276536;22;20000;-92
2022/10/31 12:11:14;;;;;;;22.30;10.40;;;;;;;;;;6247606;22;20344;-91
2022/10/31 12:13:55;;;;;;;21.95;10.57;;;;;;;;;;6246820;22;20015;-93
2022/10/31 12:16:27;;;;;;;20.33;10.65;;;;;;;;;;6247549;22;20004;-92
2022/10/31 12:18:59;;;;;;;22.77;10.70;;;;;;;;;;6260253;22;19992;-90
2022/10/31 12:21:28;;;;;;;23.98;10.35;;;;;;;;;;6272814;22;20011;-91
2022/10/31 12:24:32;;;;;;;28.33;10.88;;;;;;;;;;6272955;22;20262;-91
2022/10/31 12:30:21;;;;;;;21.27;10.57;;;;;;;;;;6182656;23;20011;-94
2022/10/31 12:33:10;;;;;;;20.75;11.93;;;;;;;;;;6155833;23;20445;-92
2022/10/31 12:35:39;;;;;;;18.85;10.70;;;;;;;;;;6229284;22;20067;-92
2022/10/31 12:38:24;;;;;;;20.30;10.82;;;;;;;;;;6248515;22;20007;-88
2022/10/31 12:41:03;;;;;;;19.08;10.30;;;;;;;;;;6251753;22;20015;-94
2022/10/31 12:43:29;;;;;;;18.15;10.93;;;;;;;;;;6276680;22;20089;-93
2022/10/31 12:45:56;;;;;;;19.80;10.55;;;;;;;;;;6274063;22;20003;-94
2022/10/31 12:48:44;;;;;;;28.88;11.27;;;;;;;;;;6224726;22;20039;-93
2022/10/31 12:51:14;;;;;;;19.42;11.32;;;;;;;;;;6273390;22;20014;-93
2022/10/31 12:53:40;;;;;;;23.02;11.15;;;;;;;;;;6273665;22;20008;-90
2022/10/31 12:56:34;;;;;;;;;;;;;;;;;;;;;
2022/10/31 13:04:50;;;;;;;24.63;11.82;;;;;;;;;;6274930;22;20011;-91
2022/10/31 13:07:20;;;;;;;24.90;11.88;;;;;;;;;;6247082;22;20073;-93
2022/10/31 13:10:05;;;;;;;23.38;12.32;;;;;;;;;;6245352;22;20004;-88
2022/10/31 13:12:35;;;;;;;22.30;12.52;;;;;;;;;;6245627;22;20419;-91
2022/10/31 13:15:06;;;;;;;25.67;12.80;;;;;;;;;;6246266;22;20004;-93
2022/10/31 13:18:16;;;;;;;23.50;12.02;;;;;;;;;;6248772;22;20433;-93
2022/10/31 13:20:51;;;;;;;25.15;13.48;;;;;;;;;;6221457;22;20086;-94
2022/10/31 13:23:22;;;;;;;29.70;14.45;;;;;;;;;;6244653;22;20011;-92
2022/10/31 13:29:17;;;;;;;31.92;14.02;;;;;;;;;;6271305;22;20476;-90
2022/10/31 13:32:15;;;;;;;23.88;13.05;;;;;;;;;;6155919;23;20470;-91
2022/10/31 13:34:51;;;;;;;;;;;;;;;;;;6186578;22;20007;-93
2022/10/31 13:37:56;;;;;;;24.05;12.70;;;;;;;;;;6278991;22;19907;-94
2022/10/31 13:43:55;;;;;;;25.13;12.85;;;;;;;;;;6250459;22;20034;-91
2022/10/31 13:49:51;;;;;;;30.00;13.00;;;;;;;;;;6284847;22;20000;-94
2022/10/31 13:52:26;;;;;;;27.48;12.70;;;;;;;;;;6257405;22;20008;-90
2022/10/31 13:54:58;;;;;;;24.00;12.93;;;;;;;;;;6252014;22;20011;-93
2022/10/31 14:00:34;;;;;;;21.13;12.10;;;;;;;;;;6252127;22;20370;-93
2022/10/31 14:03:08;;;;;;;24.45;12.38;;;;;;;;;;6258374;22;20420;-95
2022/10/31 14:05:38;;;;;;;22.55;11.55;;;;;;;;;;6252229;22;20003;-94
2022/10/31 14:11:08;;;;;;;21.75;12.15;;;;;;;;;;6276697;22;20084;-92
2022/10/31 14:13:49;;;;;;;27.07;12.17;;;;;;;;;;6251970;22;20015;-94
2022/10/31 14:16:25;;;;;;;26.27;12.45;;;;;;;;;;6279196;22;20328;-94
2022/10/31 14:19:02;;;;;;;26.60;11.88;;;;;;;;;;6251393;22;20425;-93
2022/10/31 14:21:29;;;;;;;22.53;12.60;;;;;;;;;;6274842;22;20040;-91
2022/10/31 14:23:56;;;;;;;23.00;12.02;;;;;;;;;;6247270;22;20010;-92
2022/10/31 14:26:24;;;;;;;23.48;11.25;;;;;;;;;;6247693;22;20007;-92
2022/10/31 14:28:50;;;;;;;;;;;;;;;;;;6275626;22;20002;-92
2022/10/31 14:31:28;;;;;;;20.75;11.63;;;;;;;;;;6247531;22;19977;-90
2022/10/31 14:33:54;;;;;;;23.40;11.68;;;;;;;;;;6275836;22;20016;-95
2022/10/31 14:36:30;;;;;;;23.77;11.90;;;;;;;;;;6273609;22;20075;-88
2022/10/31 14:39:07;;;;;;;21.85;11.43;;;;;;;;;;6247400;22;20010;-93
2022/10/31 14:41:44;;;;;;;19.40;11.00;;;;;;;;;;6249786;22;20428;-90
2022/10/31 14:44:29;;;;;;;23.08;11.35;;;;;;;;;;6275754;22;20004;-91
2022/10/31 14:47:15;;;;;;;21.88;9.95;;;;;;;;;;6274200;22;20012;-92
2022/10/31 14:50:16;;;;;;;21.33;10.05;;;;;;;;;;6249142;22;20004;-93
2022/10/31 14:52:46;;;;;;;19.52;9.63;;;;;;;;;;6237114;22;20035;-90
2022/10/31 14:55:41;;;;;;;16.27;9.23;;;;;;;;;;6274924;22;19996;-94
2022/10/31 14:58:16;;;;;;;19.13;8.60;;;;;;;;;;6254674;22;20117;-93
2022/10/31 15:01:19;;;;;;;19.23;9.07;;;;;;;;;;6273783;22;19984;-93
2022/10/31 15:03:47;;;;;;;20.00;8.20;;;;;;;;;;6270073;22;20038;-93
2022/10/31 15:09:30;;;;;;;16.95;9.15;;;;;;;;;;6281015;22;20004;-94
2022/10/31 15:12:00;;;;;;;18.67;9.73;;;;;;;;;;6254316;22;20004;-95
2022/10/31 15:14:32;;;;;;;22.25;10.18;;;;;;;;;;6251351;22;20061;-93
2022/10/31 15:17:02;;;;;;;16.23;9.18;;;;;;;;;;6245303;22;20000;-94
2022/10/31 15:19:37;;;;;;;19.65;9.40;;;;;;;;;;6246345;22;20035;-93
2022/10/31 15:22:06;;;;;;;19.55;8.30;;;;;;;;;;6246652;22;20023;-94
2022/10/31 15:24:36;;;;;;;22.23;9.90;;;;;;;;;;6248220;22;20004;-94